createdAt,value
2023-12-30T00:01:16.509Z,31.71
2023-12-30T00:03:45.570Z,31.84
2023-12-30T00:06:13.373Z,32.01
2023-12-30T00:08:42.258Z,31.84
2023-12-30T00:11:09.812Z,31.63
2023-12-30T00:13:38.883Z,31.87
2023-12-30T00:16:07.058Z,31.89
2023-12-30T00:18:34.601Z,31.79
2023-12-30T00:21:02.419Z,31.87
2023-12-30T00:23:37.064Z,32.05
2023-12-30T00:26:09.918Z,32.03
2023-12-30T00:28:37.506Z,32.11
2023-12-30T00:31:05.192Z,31.91
2023-12-30T00:33:33.241Z,32.08
2023-12-30T00:36:00.807Z,32.16
2023-12-30T00:38:28.351Z,32.06
2023-12-30T00:40:55.884Z,32.11
2023-12-30T00:43:24.683Z,31.98
2023-12-30T00:45:52.295Z,32.35
2023-12-30T00:48:19.838Z,32.11
2023-12-30T00:50:47.396Z,32.15
2023-12-30T00:53:14.939Z,32.02
2023-12-30T00:55:42.454Z,31.82
2023-12-30T00:58:10.046Z,32.16
2023-12-30T01:00:38.927Z,32.30
2023-12-30T01:03:06.630Z,31.86
2023-12-30T01:05:34.198Z,32.19
2023-12-30T01:08:01.707Z,31.75
2023-12-30T01:10:29.375Z,31.85
2023-12-30T01:12:56.986Z,31.91
2023-12-30T01:15:24.593Z,31.82
2023-12-30T01:17:53.575Z,31.96
2023-12-30T01:20:20.974Z,31.91
2023-12-30T01:22:48.480Z,31.90
2023-12-30T01:25:16.209Z,31.84
2023-12-30T01:27:43.743Z,31.95
2023-12-30T01:30:12.004Z,31.58
2023-12-30T01:32:39.556Z,31.31
2023-12-30T01:35:08.757Z,31.43
2023-12-30T01:37:36.340Z,31.52
2023-12-30T01:40:04.604Z,31.40
2023-12-30T01:42:32.251Z,31.38
2023-12-30T01:44:59.841Z,31.08
2023-12-30T01:47:27.453Z,31.24
2023-12-30T01:49:55.007Z,31.25
2023-12-30T01:52:23.973Z,31.32
2023-12-30T01:54:51.340Z,31.12
2023-12-30T01:57:18.886Z,31.14
2023-12-30T01:59:46.659Z,31.13
2023-12-30T02:02:14.606Z,31.07
2023-12-30T02:04:42.164Z,31.23
2023-12-30T02:07:09.874Z,31.20
2023-12-30T02:09:38.994Z,30.90
2023-12-30T02:12:07.511Z,31.14
2023-12-30T02:14:35.268Z,30.85
2023-12-30T02:17:02.822Z,30.73
2023-12-30T02:19:30.369Z,30.69
2023-12-30T02:21:57.956Z,30.61
2023-12-30T02:24:26.954Z,30.75
2023-12-30T02:26:54.304Z,30.88
2023-12-30T02:29:21.938Z,30.86
2023-12-30T02:31:49.640Z,30.65
2023-12-30T02:34:18.240Z,30.38
2023-12-30T02:36:46.301Z,30.59
2023-12-30T02:39:13.939Z,30.63
2023-12-30T02:41:42.997Z,30.41
2023-12-30T02:44:10.365Z,30.81
2023-12-30T02:46:38.055Z,30.59
2023-12-30T02:49:06.500Z,30.80
2023-12-30T02:51:34.176Z,30.74
2023-12-30T02:54:01.711Z,30.61
2023-12-30T02:56:29.278Z,30.68
2023-12-30T02:58:59.192Z,30.82
2023-12-30T03:01:27.298Z,30.63
2023-12-30T03:03:55.312Z,30.32
2023-12-30T03:06:23.257Z,30.45
2023-12-30T03:08:50.881Z,30.52
2023-12-30T03:11:18.503Z,30.50
2023-12-30T03:13:46.112Z,30.21
2023-12-30T03:16:15.905Z,30.25
2023-12-30T03:18:43.653Z,29.99
2023-12-30T03:21:12.459Z,30.04
2023-12-30T03:23:40.010Z,29.94
2023-12-30T03:26:09.006Z,30.00
2023-12-30T03:28:36.541Z,30.09
2023-12-30T03:31:04.335Z,30.15
2023-12-30T03:33:33.283Z,29.96
2023-12-30T03:36:00.843Z,30.10
2023-12-30T03:38:28.375Z,29.90
2023-12-30T03:40:58.056Z,30.18
2023-12-30T03:43:25.629Z,30.05
2023-12-30T03:45:53.196Z,29.87
2023-12-30T03:48:20.968Z,29.80
2023-12-30T03:50:49.934Z,30.05
2023-12-30T03:53:17.483Z,29.97
2023-12-30T03:55:45.063Z,29.72
2023-12-30T03:58:12.732Z,29.68
2023-12-30T04:00:40.250Z,29.59
2023-12-30T04:03:07.772Z,29.81
2023-12-30T04:05:35.509Z,29.92
2023-12-30T04:08:04.889Z,29.68
2023-12-30T04:10:32.458Z,29.80
2023-12-30T04:13:00.289Z,29.69
2023-12-30T04:15:28.081Z,29.88
2023-12-30T04:17:55.616Z,29.77
2023-12-30T04:20:23.110Z,29.64
2023-12-30T04:22:50.600Z,29.62
2023-12-30T04:25:19.544Z,29.83
2023-12-30T04:27:47.100Z,29.77
2023-12-30T04:30:15.291Z,29.68
2023-12-30T04:32:42.934Z,29.70
2023-12-30T04:35:10.573Z,29.82
2023-12-30T04:37:38.121Z,29.80
2023-12-30T04:40:06.734Z,29.96
2023-12-30T04:42:35.586Z,29.54
2023-12-30T04:45:04.005Z,29.51
2023-12-30T04:47:31.690Z,29.75
2023-12-30T04:49:59.431Z,29.57
2023-12-30T04:52:27.091Z,29.84
2023-12-30T04:54:54.634Z,29.56
2023-12-30T04:57:22.170Z,29.66
2023-12-30T04:59:51.005Z,29.39
2023-12-30T05:02:18.509Z,29.71
2023-12-30T05:04:46.001Z,29.54
2023-12-30T05:07:13.842Z,29.62
2023-12-30T05:09:41.399Z,29.62
2023-12-30T05:12:09.087Z,29.63
2023-12-30T05:14:38.479Z,29.53
2023-12-30T05:17:07.506Z,29.81
2023-12-30T05:19:35.433Z,29.85
2023-12-30T05:22:03.165Z,29.92
2023-12-30T05:24:30.777Z,29.70
2023-12-30T05:26:58.334Z,29.51
2023-12-30T05:29:25.975Z,29.72
2023-12-30T05:31:53.600Z,29.80
2023-12-30T05:34:22.647Z,30.14
2023-12-30T05:36:50.435Z,30.04
2023-12-30T05:39:17.975Z,30.03
2023-12-30T05:41:45.503Z,29.88
2023-12-30T05:44:13.104Z,30.04
2023-12-30T05:46:40.617Z,30.31
2023-12-30T05:49:08.615Z,30.33
2023-12-30T05:51:42.635Z,30.44
2023-12-30T05:54:10.548Z,30.20
2023-12-30T05:56:38.056Z,30.05
2023-12-30T05:59:05.609Z,30.01
2023-12-30T06:01:33.298Z,30.42
2023-12-30T06:04:00.989Z,30.39
2023-12-30T06:06:30.553Z,30.58
2023-12-30T06:09:01.127Z,30.55
2023-12-30T06:11:28.483Z,30.68
2023-12-30T06:13:55.969Z,30.66
2023-12-30T06:16:23.548Z,30.70
2023-12-30T06:18:51.206Z,30.77
2023-12-30T06:21:18.841Z,30.91
2023-12-30T06:23:46.584Z,30.76
2023-12-30T06:26:15.464Z,30.64
2023-12-30T06:28:44.067Z,30.65
2023-12-30T06:31:12.155Z,30.84
2023-12-30T06:33:39.950Z,31.02
2023-12-30T06:36:08.824Z,30.73
2023-12-30T06:38:36.545Z,30.69
2023-12-30T06:41:07.545Z,30.53
2023-12-30T06:43:36.413Z,30.57
2023-12-30T06:46:05.290Z,30.29
2023-12-30T06:48:32.893Z,30.77
2023-12-30T06:51:02.682Z,30.46
2023-12-30T06:53:31.942Z,30.69
2023-12-30T06:56:01.836Z,30.70
2023-12-30T06:58:29.456Z,30.75
2023-12-30T07:00:58.550Z,30.45
2023-12-30T07:03:26.229Z,31.01
2023-12-30T07:05:53.815Z,30.90
2023-12-30T07:08:21.754Z,30.60
2023-12-30T07:10:49.267Z,30.42
2023-12-30T07:13:16.826Z,30.48
2023-12-30T07:15:44.393Z,30.37
2023-12-30T07:18:15.748Z,30.20
2023-12-30T07:20:43.300Z,29.84
2023-12-30T07:23:10.822Z,29.99
2023-12-30T07:25:38.405Z,29.89
2023-12-30T07:28:06.371Z,30.00
2023-12-30T07:30:34.043Z,29.91
2023-12-30T07:33:01.846Z,30.07
2023-12-30T07:35:31.000Z,30.39
2023-12-30T07:37:58.449Z,30.55
2023-12-30T07:40:26.154Z,30.27
2023-12-30T07:42:53.795Z,30.22
2023-12-30T07:45:21.347Z,30.15
2023-12-30T07:47:49.629Z,29.95
2023-12-30T07:50:17.161Z,29.79
2023-12-30T07:52:45.990Z,29.90
2023-12-30T07:55:13.601Z,29.80
2023-12-30T07:57:41.097Z,29.74
2023-12-30T08:00:09.664Z,29.84
2023-12-30T08:02:37.177Z,29.59
2023-12-30T08:05:05.004Z,29.82
2023-12-30T08:07:32.833Z,29.68
2023-12-30T08:10:01.790Z,29.73
2023-12-30T08:12:29.380Z,29.59
2023-12-30T08:14:56.938Z,29.63
2023-12-30T08:17:24.660Z,29.55
2023-12-30T08:19:52.262Z,29.43
2023-12-30T08:22:20.435Z,29.45
2023-12-30T08:24:48.026Z,29.48
2023-12-30T08:27:16.867Z,29.30
2023-12-30T08:29:44.368Z,29.21
2023-12-30T08:32:11.875Z,29.58
2023-12-30T08:34:39.744Z,29.56
2023-12-30T08:37:09.821Z,29.60
2023-12-30T08:39:38.294Z,29.46
2023-12-30T08:42:06.445Z,29.27
2023-12-30T08:44:38.897Z,29.53
2023-12-30T08:47:07.249Z,29.75
2023-12-30T08:49:34.993Z,29.82
2023-12-30T08:52:02.601Z,30.17
2023-12-30T08:54:30.146Z,30.79
2023-12-30T08:56:57.762Z,31.42
2023-12-30T08:59:25.685Z,31.78
2023-12-30T09:01:54.623Z,31.85
2023-12-30T09:04:22.526Z,31.98
2023-12-30T09:06:50.165Z,32.07
2023-12-30T09:09:17.653Z,32.09
2023-12-30T09:11:46.125Z,32.21
2023-12-30T09:14:14.435Z,32.29
2023-12-30T09:16:42.323Z,32.22
2023-12-30T09:19:11.298Z,32.17
2023-12-30T09:21:38.703Z,32.05
2023-12-30T09:24:06.959Z,32.22
2023-12-30T09:26:34.441Z,32.46
2023-12-30T09:29:01.952Z,32.75
2023-12-30T09:31:29.550Z,32.45
2023-12-30T09:33:56.929Z,32.76
2023-12-30T09:36:25.872Z,32.61
2023-12-30T09:38:53.360Z,32.47
2023-12-30T09:41:21.274Z,32.27
2023-12-30T09:43:48.927Z,32.27
2023-12-30T09:46:16.636Z,32.00
2023-12-30T09:48:45.187Z,32.17
2023-12-30T09:51:13.108Z,32.71
2023-12-30T09:53:41.999Z,32.67
2023-12-30T09:56:09.548Z,32.53
2023-12-30T09:58:37.133Z,32.59
2023-12-30T10:01:06.013Z,32.01
2023-12-30T10:03:33.716Z,31.54
2023-12-30T10:06:02.458Z,31.52
2023-12-30T10:08:30.047Z,31.37
2023-12-30T10:10:59.136Z,30.99
2023-12-30T10:13:28.246Z,30.96
2023-12-30T10:15:59.935Z,30.66
2023-12-30T10:18:28.099Z,30.72
2023-12-30T10:20:56.765Z,30.58
2023-12-30T10:23:25.127Z,30.56
2023-12-30T10:25:52.670Z,30.31
2023-12-30T10:28:21.663Z,30.37
2023-12-30T10:30:49.663Z,30.29
2023-12-30T10:33:18.418Z,30.19
2023-12-30T10:35:46.987Z,30.58
2023-12-30T10:38:15.340Z,30.45
2023-12-30T10:40:44.564Z,30.14
2023-12-30T10:43:12.641Z,30.38
2023-12-30T10:45:41.647Z,30.05
2023-12-30T10:48:09.724Z,30.31
2023-12-30T10:50:38.738Z,30.37
2023-12-30T10:53:09.259Z,30.10
2023-12-30T10:55:37.399Z,30.38
2023-12-30T10:58:05.686Z,30.45
2023-12-30T11:00:36.480Z,30.56
2023-12-30T11:03:06.169Z,30.47
2023-12-30T11:05:37.070Z,30.56
2023-12-30T11:08:05.676Z,30.71
2023-12-30T11:10:34.240Z,30.56
2023-12-30T11:13:02.373Z,30.65
2023-12-30T11:15:31.093Z,30.69
2023-12-30T11:17:59.310Z,30.72
2023-12-30T11:20:29.322Z,30.73
2023-12-30T11:23:09.210Z,30.61
2023-12-30T11:25:37.236Z,30.59
2023-12-30T11:28:15.501Z,30.88
2023-12-30T11:30:45.044Z,30.63
2023-12-30T11:33:12.771Z,30.77
2023-12-30T11:35:41.786Z,30.86
2023-12-30T11:38:09.488Z,30.69
2023-12-30T11:40:44.548Z,30.56
2023-12-30T11:43:12.407Z,30.61
2023-12-30T11:45:39.986Z,30.77
2023-12-30T11:48:08.176Z,30.88
2023-12-30T11:50:35.721Z,30.92
2023-12-30T11:53:05.136Z,31.13
2023-12-30T11:55:32.899Z,30.97
2023-12-30T11:58:00.477Z,30.86
2023-12-30T12:00:28.244Z,30.63
2023-12-30T12:02:57.226Z,30.46
2023-12-30T12:05:24.978Z,30.80
2023-12-30T12:07:52.475Z,30.94
2023-12-30T12:10:21.409Z,30.61
2023-12-30T12:12:49.519Z,30.56
2023-12-30T12:15:17.122Z,30.64
2023-12-30T12:17:44.788Z,30.56
2023-12-30T12:20:12.654Z,30.45
2023-12-30T12:22:40.438Z,30.46
2023-12-30T12:25:09.017Z,30.49
2023-12-30T12:27:38.041Z,30.65
2023-12-30T12:30:06.997Z,30.43
2023-12-30T12:32:35.309Z,30.57
2023-12-30T12:35:03.054Z,30.62
2023-12-30T12:37:30.754Z,30.55
2023-12-30T12:39:58.300Z,30.20
2023-12-30T12:42:30.733Z,30.48
2023-12-30T12:45:00.382Z,29.93
2023-12-30T12:47:27.978Z,30.10
2023-12-30T12:49:55.714Z,29.91
2023-12-30T12:52:23.302Z,29.75
2023-12-30T12:54:51.260Z,30.08
2023-12-30T12:57:18.808Z,30.07
2023-12-30T12:59:46.357Z,29.86
2023-12-30T13:04:43.476Z,29.43
2023-12-30T13:07:12.447Z,29.72
2023-12-30T13:09:53.987Z,29.82
2023-12-30T13:12:21.562Z,29.76
2023-12-30T13:14:49.651Z,29.58
2023-12-30T13:17:19.211Z,29.57
2023-12-30T13:19:47.133Z,29.79
2023-12-30T13:22:14.750Z,29.71
2023-12-30T13:24:42.338Z,29.71
2023-12-30T13:27:10.680Z,29.86
2023-12-30T13:29:38.398Z,29.90
2023-12-30T13:32:06.619Z,29.94
2023-12-30T13:34:35.875Z,29.89
2023-12-30T13:37:06.863Z,29.78
2023-12-30T13:39:35.917Z,29.82
2023-12-30T13:42:05.804Z,29.58
2023-12-30T13:44:36.852Z,29.84
2023-12-30T13:47:25.564Z,29.70
2023-12-30T13:50:11.413Z,29.80
2023-12-30T13:52:39.116Z,29.69
2023-12-30T13:55:07.899Z,29.70
2023-12-30T13:57:38.225Z,29.86
2023-12-30T14:00:07.997Z,29.97
2023-12-30T14:02:39.668Z,29.87
2023-12-30T14:05:17.095Z,30.45
2023-12-30T14:07:44.980Z,30.08
2023-12-30T14:12:46.964Z,30.07
2023-12-30T14:15:14.834Z,30.04
2023-12-30T14:17:44.065Z,29.98
2023-12-30T14:20:14.374Z,30.14
2023-12-30T14:22:42.336Z,30.20
2023-12-30T14:25:12.348Z,30.00
2023-12-30T14:27:41.353Z,29.88
2023-12-30T14:30:12.716Z,30.03
2023-12-30T14:32:42.537Z,29.92
2023-12-30T14:35:11.449Z,30.02
2023-12-30T14:37:40.886Z,29.90
2023-12-30T14:40:09.827Z,29.82
2023-12-30T14:42:37.436Z,30.09
2023-12-30T14:45:07.413Z,29.91
2023-12-30T14:47:36.451Z,30.00
2023-12-30T14:50:06.932Z,29.83
2023-12-30T14:52:34.515Z,29.84
2023-12-30T14:55:07.105Z,29.74
2023-12-30T14:57:34.600Z,29.87
2023-12-30T15:00:02.086Z,29.87
2023-12-30T15:02:29.666Z,29.96
2023-12-30T15:04:57.240Z,29.97
2023-12-30T15:07:26.466Z,29.80
2023-12-30T15:09:53.984Z,30.07
2023-12-30T15:12:24.543Z,30.07
2023-12-30T15:14:52.132Z,30.18
2023-12-30T15:17:19.734Z,30.13
2023-12-30T15:19:47.323Z,30.07
2023-12-30T15:22:15.097Z,29.92
2023-12-30T15:24:42.649Z,30.16
2023-12-30T15:27:10.288Z,30.27
2023-12-30T15:29:39.269Z,30.63
2023-12-30T15:32:07.453Z,30.67
2023-12-30T15:34:37.787Z,31.82
2023-12-30T15:37:05.385Z,31.41
2023-12-30T15:39:32.871Z,31.26
2023-12-30T15:42:00.591Z,31.18
2023-12-30T15:44:33.197Z,31.23
2023-12-30T15:47:02.093Z,30.96
2023-12-30T15:49:29.810Z,31.30
2023-12-30T15:51:57.500Z,30.90
2023-12-30T15:54:25.011Z,30.84
2023-12-30T15:56:53.254Z,31.12
2023-12-30T15:59:20.764Z,31.05
2023-12-30T16:01:48.388Z,31.06
2023-12-30T16:04:17.326Z,31.17
2023-12-30T16:06:45.905Z,30.83
2023-12-30T16:09:13.451Z,31.22
2023-12-30T16:11:41.057Z,31.27
2023-12-30T16:14:10.940Z,31.15
2023-12-30T16:16:40.464Z,31.52
2023-12-30T16:19:09.819Z,31.52
2023-12-30T16:21:38.837Z,31.45
2023-12-30T16:24:07.131Z,31.76
2023-12-30T16:26:34.631Z,31.70
2023-12-30T16:29:03.395Z,32.84
2023-12-30T16:31:30.969Z,33.43
2023-12-30T16:33:58.629Z,33.84
2023-12-30T16:36:26.454Z,33.93
2023-12-30T16:38:55.805Z,33.92
2023-12-30T16:41:23.739Z,34.20
2023-12-30T16:43:51.480Z,34.51
2023-12-30T16:46:19.763Z,34.19
2023-12-30T16:48:47.497Z,33.50
2023-12-30T16:51:15.460Z,32.97
2023-12-30T16:53:43.258Z,32.65
2023-12-30T16:56:12.092Z,32.51
2023-12-30T16:58:40.878Z,32.08
2023-12-30T17:01:08.548Z,32.28
2023-12-30T17:03:36.797Z,32.03
2023-12-30T17:06:04.833Z,31.99
2023-12-30T17:08:32.336Z,31.96
2023-12-30T17:10:59.888Z,31.96
2023-12-30T17:13:35.237Z,31.71
2023-12-30T17:16:07.910Z,31.75
2023-12-30T17:18:35.697Z,31.75
2023-12-30T17:21:03.444Z,31.64
2023-12-30T17:23:30.967Z,31.75
2023-12-30T17:25:58.540Z,31.86
2023-12-30T17:28:26.074Z,32.14
2023-12-30T17:30:55.446Z,31.96
2023-12-30T17:33:23.037Z,31.91
2023-12-30T17:35:50.996Z,31.85
2023-12-30T17:38:18.948Z,31.58
2023-12-30T17:40:46.554Z,31.60
2023-12-30T17:43:14.141Z,31.33
2023-12-30T17:45:41.678Z,31.15
2023-12-30T17:48:11.628Z,31.31
2023-12-30T17:50:39.727Z,31.25
2023-12-30T17:53:08.295Z,31.31
2023-12-30T17:55:35.852Z,30.98
2023-12-30T17:58:03.462Z,30.89
2023-12-30T18:00:31.061Z,30.83
2023-12-30T18:02:58.601Z,30.85
2023-12-30T18:05:27.491Z,30.56
2023-12-30T18:07:55.096Z,30.86
2023-12-30T18:10:23.051Z,30.62
2023-12-30T18:12:51.462Z,30.49
2023-12-30T18:15:19.083Z,30.80
2023-12-30T18:17:46.964Z,30.62
2023-12-30T18:20:18.790Z,30.67
2023-12-30T18:22:48.117Z,30.47
2023-12-30T18:25:15.787Z,30.53
2023-12-30T18:27:43.330Z,30.58
2023-12-30T18:30:13.108Z,30.59
2023-12-30T18:32:40.837Z,30.56
2023-12-30T18:35:08.701Z,30.81
2023-12-30T18:37:36.321Z,30.64
2023-12-30T18:40:07.991Z,30.60
2023-12-30T18:42:35.587Z,30.74
2023-12-30T18:45:03.797Z,30.69
2023-12-30T18:47:31.476Z,30.78
2023-12-30T18:49:59.374Z,30.53
2023-12-30T18:52:27.229Z,30.76
2023-12-30T18:54:55.469Z,30.77
2023-12-30T18:57:24.333Z,30.62
2023-12-30T18:59:51.838Z,30.78
2023-12-30T19:02:19.365Z,30.64
2023-12-30T19:04:47.037Z,30.79
2023-12-30T19:07:14.627Z,30.75
2023-12-30T19:09:42.161Z,30.99
2023-12-30T19:12:10.002Z,30.97
2023-12-30T19:14:38.869Z,30.83
2023-12-30T19:17:06.434Z,30.93
2023-12-30T19:19:33.984Z,30.98
2023-12-30T19:22:01.650Z,30.65
2023-12-30T19:24:29.177Z,30.92
2023-12-30T19:26:56.709Z,30.93
2023-12-30T19:29:24.201Z,30.78
2023-12-30T19:31:53.037Z,30.86
2023-12-30T19:34:20.633Z,30.57
2023-12-30T19:36:48.416Z,30.74
2023-12-30T19:39:15.976Z,30.53
2023-12-30T19:41:43.894Z,30.61
2023-12-30T19:44:11.802Z,30.42
2023-12-30T19:46:39.505Z,30.43
2023-12-30T19:49:08.632Z,30.70
2023-12-30T19:51:36.181Z,30.67
2023-12-30T19:54:03.804Z,30.76
2023-12-30T19:56:31.377Z,30.83
2023-12-30T19:58:58.939Z,30.99
2023-12-30T20:01:26.519Z,30.85
2023-12-30T20:03:54.176Z,30.82
2023-12-30T20:06:23.114Z,30.91
2023-12-30T20:08:50.812Z,30.96
2023-12-30T20:11:18.595Z,31.03
2023-12-30T20:13:47.026Z,30.99
2023-12-30T20:16:14.628Z,31.00
2023-12-30T20:18:42.620Z,30.79
2023-12-30T20:21:11.021Z,31.04
2023-12-30T20:23:40.248Z,30.86
2023-12-30T20:26:09.072Z,30.73
2023-12-30T20:28:36.725Z,30.80
2023-12-30T20:31:05.506Z,30.90
2023-12-30T20:33:33.281Z,30.97
2023-12-30T20:36:01.533Z,31.08
2023-12-30T20:38:29.040Z,30.80
2023-12-30T20:40:57.984Z,31.00
2023-12-30T20:43:25.369Z,30.75
2023-12-30T20:45:52.906Z,30.66
2023-12-30T20:48:20.472Z,30.55
2023-12-30T20:50:48.213Z,30.92
2023-12-30T20:53:17.184Z,30.60
2023-12-30T20:58:13.464Z,30.71
2023-12-30T21:00:41.051Z,31.00
2023-12-30T21:03:08.620Z,30.83
2023-12-30T21:05:36.210Z,30.64
2023-12-30T21:10:31.425Z,30.66
2023-12-30T21:12:59.011Z,30.30
2023-12-30T21:15:27.880Z,30.71
2023-12-30T21:17:55.774Z,30.46
2023-12-30T21:20:23.437Z,30.77
2023-12-30T21:22:51.094Z,30.71
2023-12-30T21:25:26.140Z,30.90
2023-12-30T21:27:54.905Z,30.86
2023-12-30T21:30:23.829Z,30.87
2023-12-30T21:32:53.291Z,30.80
2023-12-30T21:35:20.930Z,31.07
2023-12-30T21:37:48.897Z,31.00
2023-12-30T21:40:17.557Z,30.54
2023-12-30T21:42:45.076Z,30.96
2023-12-30T21:45:12.994Z,30.79
2023-12-30T21:47:40.571Z,30.63
2023-12-30T21:50:10.878Z,30.99
2023-12-30T21:52:39.573Z,30.85
2023-12-30T21:55:07.961Z,30.91
2023-12-30T21:57:35.577Z,31.07
2023-12-30T22:00:05.145Z,30.99
2023-12-30T22:02:32.696Z,30.98
2023-12-30T22:05:00.377Z,31.02
2023-12-30T22:07:29.362Z,31.12
2023-12-30T22:09:56.890Z,31.35
2023-12-30T22:12:24.396Z,31.49
2023-12-30T22:14:51.912Z,31.72
2023-12-30T22:17:19.439Z,31.76
2023-12-30T22:19:48.327Z,31.92
2023-12-30T22:22:15.767Z,31.68
2023-12-30T22:24:44.623Z,31.85
2023-12-30T22:27:12.109Z,32.19
2023-12-30T22:29:39.632Z,32.42
2023-12-30T22:32:07.382Z,32.40
2023-12-30T22:34:34.997Z,32.46
2023-12-30T22:37:02.947Z,32.65
2023-12-30T22:39:30.541Z,32.99
2023-12-30T22:41:59.724Z,33.42
2023-12-30T22:44:27.216Z,33.42
2023-12-30T22:46:54.782Z,33.45
2023-12-30T22:49:22.512Z,33.59
2023-12-30T22:51:50.640Z,33.77
2023-12-30T22:54:18.722Z,33.56
2023-12-30T22:56:46.515Z,33.64
2023-12-30T22:59:16.415Z,33.66
2023-12-30T23:01:44.108Z,33.45
2023-12-30T23:04:11.823Z,33.48
2023-12-30T23:06:39.332Z,33.41
2023-12-30T23:09:07.046Z,32.87
2023-12-30T23:11:34.528Z,33.04
2023-12-30T23:14:02.152Z,33.08
2023-12-30T23:16:31.080Z,32.80
2023-12-30T23:18:58.786Z,32.77
2023-12-30T23:21:30.144Z,32.68
2023-12-30T23:23:57.645Z,32.70
2023-12-30T23:26:25.422Z,32.71
2023-12-30T23:28:54.583Z,32.40
2023-12-30T23:31:22.209Z,32.67
2023-12-30T23:33:51.143Z,32.56
2023-12-30T23:36:18.673Z,32.42
2023-12-30T23:38:46.682Z,32.58
2023-12-30T23:41:15.174Z,32.47
2023-12-30T23:43:42.969Z,32.58
2023-12-30T23:46:10.575Z,32.81
2023-12-30T23:48:38.104Z,32.90
2023-12-30T23:51:07.131Z,32.57
2023-12-30T23:53:36.175Z,32.57
2023-12-30T23:56:05.430Z,32.30
2023-12-30T23:58:33.089Z,32.44
